sensor_id;sensor_type;location;lat;lon;timestamp;P1;durP1;ratioP1;P2;durP2;ratioP2
17340;SDS011;8788;49.930;8.660;2022-09-12T04:05:22;6.72;;;5.20;;
17340;SDS011;8788;49.930;8.660;2022-09-12T04:07:50;6.10;;;5.00;;
17340;SDS011;8788;49.930;8.660;2022-09-12T04:10:17;6.03;;;5.38;;
17340;SDS011;8788;49.930;8.660;2022-09-12T04:12:44;6.70;;;5.07;;
17340;SDS011;8788;49.930;8.660;2022-09-12T04:15:12;6.78;;;5.18;;
17340;SDS011;8788;49.930;8.660;2022-09-12T04:17:39;9.98;;;5.35;;
17340;SDS011;8788;49.930;8.660;2022-09-12T04:20:06;5.88;;;5.28;;
17340;SDS011;8788;49.930;8.660;2022-09-12T04:22:35;7.57;;;5.35;;
17340;SDS011;8788;49.930;8.660;2022-09-12T04:25:02;7.20;;;6.00;;
17340;SDS011;8788;49.930;8.660;2022-09-12T04:27:30;9.27;;;5.50;;
17340;SDS011;8788;49.930;8.660;2022-09-12T04:29:57;6.20;;;5.25;;
17340;SDS011;8788;49.930;8.660;2022-09-12T04:32:25;6.38;;;5.30;;
17340;SDS011;8788;49.930;8.660;2022-09-12T04:34:52;6.93;;;5.45;;
17340;SDS011;8788;49.930;8.660;2022-09-12T04:37:19;5.95;;;5.32;;
17340;SDS011;8788;49.930;8.660;2022-09-12T04:39:49;6.50;;;5.25;;
17340;SDS011;8788;49.930;8.660;2022-09-12T04:42:20;8.45;;;5.07;;
17340;SDS011;8788;49.930;8.660;2022-09-12T04:44:47;6.53;;;5.10;;
17340;SDS011;8788;49.930;8.660;2022-09-12T04:47:14;6.57;;;5.30;;
17340;SDS011;8788;49.930;8.660;2022-09-12T04:49:42;6.70;;;4.95;;
17340;SDS011;8788;49.930;8.660;2022-09-12T04:52:09;8.93;;;5.63;;
17340;SDS011;8788;49.930;8.660;2022-09-12T04:54:36;7.40;;;5.72;;
17340;SDS011;8788;49.930;8.660;2022-09-12T04:57:05;6.85;;;5.47;;
17340;SDS011;8788;49.930;8.660;2022-09-12T04:59:32;7.40;;;5.82;;
17340;SDS011;8788;49.930;8.660;2022-09-12T05:01:59;5.18;;;4.68;;
17340;SDS011;8788;49.930;8.660;2022-09-12T05:04:27;6.68;;;5.68;;
17340;SDS011;8788;49.930;8.660;2022-09-12T05:06:54;8.07;;;5.13;;
17340;SDS011;8788;49.930;8.660;2022-09-12T05:09:21;5.53;;;4.35;;
17340;SDS011;8788;49.930;8.660;2022-09-12T05:11:48;5.80;;;5.22;;
17340;SDS011;8788;49.930;8.660;2022-09-12T05:14:17;7.80;;;5.82;;
17340;SDS011;8788;49.930;8.660;2022-09-12T05:16:44;6.65;;;5.43;;
17340;SDS011;8788;49.930;8.660;2022-09-12T05:19:11;6.15;;;5.05;;
17340;SDS011;8788;49.930;8.660;2022-09-12T05:21:38;9.55;;;5.75;;
17340;SDS011;8788;49.930;8.660;2022-09-12T05:24:05;7.40;;;5.38;;
17340;SDS011;8788;49.930;8.660;2022-09-12T05:26:32;6.68;;;5.22;;
17340;SDS011;8788;49.930;8.660;2022-09-12T05:28:59;7.88;;;5.07;;
17340;SDS011;8788;49.930;8.660;2022-09-12T05:31:31;5.38;;;4.47;;
17340;SDS011;8788;49.930;8.660;2022-09-12T05:33:58;7.88;;;5.30;;
17340;SDS011;8788;49.930;8.660;2022-09-12T05:36:26;5.68;;;5.03;;
17340;SDS011;8788;49.930;8.660;2022-09-12T05:38:54;5.70;;;4.93;;
17340;SDS011;8788;49.930;8.660;2022-09-12T05:41:22;5.55;;;4.60;;
17340;SDS011;8788;49.930;8.660;2022-09-12T05:43:50;5.93;;;4.93;;
17340;SDS011;8788;49.930;8.660;2022-09-12T05:46:19;5.63;;;5.13;;
17340;SDS011;8788;49.930;8.660;2022-09-12T05:48:49;5.65;;;4.80;;
17340;SDS011;8788;49.930;8.660;2022-09-12T05:51:17;6.72;;;4.88;;
17340;SDS011;8788;49.930;8.660;2022-09-12T05:53:46;6.07;;;4.90;;
17340;SDS011;8788;49.930;8.660;2022-09-12T05:56:15;4.85;;;4.35;;
17340;SDS011;8788;49.930;8.660;2022-09-12T05:58:44;5.25;;;4.75;;
17340;SDS011;8788;49.930;8.660;2022-09-12T06:01:13;4.65;;;4.22;;
17340;SDS011;8788;49.930;8.660;2022-09-12T06:03:42;4.85;;;4.32;;
17340;SDS011;8788;49.930;8.660;2022-09-12T06:06:12;5.90;;;4.97;;
17340;SDS011;8788;49.930;8.660;2022-09-12T06:08:41;5.10;;;4.43;;
17340;SDS011;8788;49.930;8.660;2022-09-12T06:11:10;5.97;;;4.28;;
17340;SDS011;8788;49.930;8.660;2022-09-12T06:13:40;6.38;;;4.85;;
17340;SDS011;8788;49.930;8.660;2022-09-12T06:16:09;7.43;;;4.95;;
17340;SDS011;8788;49.930;8.660;2022-09-12T06:18:38;7.47;;;4.75;;
17340;SDS011;8788;49.930;8.660;2022-09-12T06:21:06;6.32;;;4.00;;
17340;SDS011;8788;49.930;8.660;2022-09-12T06:23:35;6.28;;;4.97;;
17340;SDS011;8788;49.930;8.660;2022-09-12T06:26:03;5.20;;;4.40;;
17340;SDS011;8788;49.930;8.660;2022-09-12T06:28:33;7.57;;;4.60;;
17340;SDS011;8788;49.930;8.660;2022-09-12T06:31:02;5.22;;;4.57;;
17340;SDS011;8788;49.930;8.660;2022-09-12T06:33:30;6.10;;;5.20;;
17340;SDS011;8788;49.930;8.660;2022-09-12T06:36:01;8.27;;;5.38;;
17340;SDS011;8788;49.930;8.660;2022-09-12T06:38:29;6.82;;;5.40;;
17340;SDS011;8788;49.930;8.660;2022-09-12T06:40:58;5.78;;;5.03;;
17340;SDS011;8788;49.930;8.660;2022-09-12T06:43:25;6.18;;;5.10;;
17340;SDS011;8788;49.930;8.660;2022-09-12T06:45:53;6.75;;;4.90;;
17340;SDS011;8788;49.930;8.660;2022-09-12T06:48:20;6.45;;;5.15;;
17340;SDS011;8788;49.930;8.660;2022-09-12T06:50:54;6.60;;;5.95;;
17340;SDS011;8788;49.930;8.660;2022-09-12T06:53:23;6.43;;;4.95;;
17340;SDS011;8788;49.930;8.660;2022-09-12T06:55:55;6.63;;;5.32;;
17340;SDS011;8788;49.930;8.660;2022-09-12T06:58:24;6.55;;;5.65;;
17340;SDS011;8788;49.930;8.660;2022-09-12T07:00:52;7.15;;;5.32;;
17340;SDS011;8788;49.930;8.660;2022-09-12T07:03:27;7.78;;;5.55;;
17340;SDS011;8788;49.930;8.660;2022-09-12T07:05:54;7.07;;;5.35;;
17340;SDS011;8788;49.930;8.660;2022-09-12T07:08:22;10.20;;;5.90;;
17340;SDS011;8788;49.930;8.660;2022-09-12T07:10:49;8.02;;;5.65;;
17340;SDS011;8788;49.930;8.660;2022-09-12T07:13:16;8.27;;;6.13;;
17340;SDS011;8788;49.930;8.660;2022-09-12T07:15:45;7.88;;;5.85;;
17340;SDS011;8788;49.930;8.660;2022-09-12T07:18:12;6.20;;;5.20;;
17340;SDS011;8788;49.930;8.660;2022-09-12T07:20:39;10.70;;;6.30;;
17340;SDS011;8788;49.930;8.660;2022-09-12T07:23:07;7.13;;;5.10;;
17340;SDS011;8788;49.930;8.660;2022-09-12T07:25:34;6.68;;;5.65;;
17340;SDS011;8788;49.930;8.660;2022-09-12T07:28:01;7.78;;;5.80;;
17340;SDS011;8788;49.930;8.660;2022-09-12T07:30:29;6.22;;;5.47;;
17340;SDS011;8788;49.930;8.660;2022-09-12T07:32:57;6.65;;;5.90;;
17340;SDS011;8788;49.930;8.660;2022-09-12T07:35:24;6.85;;;5.32;;
17340;SDS011;8788;49.930;8.660;2022-09-12T07:37:51;6.13;;;5.22;;
17340;SDS011;8788;49.930;8.660;2022-09-12T07:40:18;8.18;;;6.28;;
17340;SDS011;8788;49.930;8.660;2022-09-12T07:42:46;6.35;;;5.63;;
17340;SDS011;8788;49.930;8.660;2022-09-12T07:45:13;6.65;;;5.35;;
17340;SDS011;8788;49.930;8.660;2022-09-12T07:47:40;6.40;;;4.85;;
17340;SDS011;8788;49.930;8.660;2022-09-12T07:50:09;6.45;;;5.05;;
17340;SDS011;8788;49.930;8.660;2022-09-12T07:52:37;6.50;;;5.40;;
17340;SDS011;8788;49.930;8.660;2022-09-12T07:55:04;6.43;;;5.15;;
17340;SDS011;8788;49.930;8.660;2022-09-12T07:57:32;7.68;;;5.00;;
17340;SDS011;8788;49.930;8.660;2022-09-12T07:59:59;7.93;;;6.20;;
17340;SDS011;8788;49.930;8.660;2022-09-12T08:02:26;9.38;;;5.65;;
17340;SDS011;8788;49.930;8.660;2022-09-12T08:04:53;7.47;;;5.43;;
17340;SDS011;8788;49.930;8.660;2022-09-12T08:07:22;8.57;;;6.15;;
17340;SDS011;8788;49.930;8.660;2022-09-12T08:09:49;7.50;;;5.78;;
17340;SDS011;8788;49.930;8.660;2022-09-12T08:12:17;9.07;;;5.55;;
17340;SDS011;8788;49.930;8.660;2022-09-12T08:14:45;8.02;;;6.00;;
17340;SDS011;8788;49.930;8.660;2022-09-12T08:17:12;8.38;;;6.18;;
17340;SDS011;8788;49.930;8.660;2022-09-12T08:19:39;6.85;;;5.45;;
17340;SDS011;8788;49.930;8.660;2022-09-12T08:22:06;7.53;;;5.63;;
17340;SDS011;8788;49.930;8.660;2022-09-12T08:24:35;8.95;;;6.05;;
17340;SDS011;8788;49.930;8.660;2022-09-12T08:27:03;6.25;;;5.65;;
17340;SDS011;8788;49.930;8.660;2022-09-12T08:29:30;6.28;;;5.65;;
17340;SDS011;8788;49.930;8.660;2022-09-12T08:31:58;10.27;;;5.90;;
17340;SDS011;8788;49.930;8.660;2022-09-12T08:34:25;7.93;;;6.15;;
17340;SDS011;8788;49.930;8.660;2022-09-12T08:36:52;9.52;;;5.88;;
17340;SDS011;8788;49.930;8.660;2022-09-12T08:39:19;6.43;;;5.20;;
17340;SDS011;8788;49.930;8.660;2022-09-12T08:41:50;5.85;;;5.15;;
17340;SDS011;8788;49.930;8.660;2022-09-12T08:44:37;9.93;;;5.38;;
17340;SDS011;8788;49.930;8.660;2022-09-12T08:47:25;7.30;;;5.85;;
17340;SDS011;8788;49.930;8.660;2022-09-12T08:49:59;6.03;;;4.85;;
17340;SDS011;8788;49.930;8.660;2022-09-12T08:52:32;5.30;;;4.80;;
17340;SDS011;8788;49.930;8.660;2022-09-12T08:55:05;6.28;;;5.55;;
17340;SDS011;8788;49.930;8.660;2022-09-12T08:57:51;5.75;;;4.55;;
17340;SDS011;8788;49.930;8.660;2022-09-12T09:00:18;6.15;;;4.82;;
17340;SDS011;8788;49.930;8.660;2022-09-12T09:02:51;5.60;;;5.00;;
17340;SDS011;8788;49.930;8.660;2022-09-12T09:05:31;5.95;;;5.35;;
17340;SDS011;8788;49.930;8.660;2022-09-12T09:08:13;5.78;;;4.70;;
17340;SDS011;8788;49.930;8.660;2022-09-12T09:10:52;5.28;;;4.78;;
17340;SDS011;8788;49.930;8.660;2022-09-12T09:13:31;7.05;;;4.70;;
17340;SDS011;8788;49.930;8.660;2022-09-12T09:16:23;5.88;;;5.05;;
17340;SDS011;8788;49.930;8.660;2022-09-12T09:18:56;4.20;;;3.80;;
17340;SDS011;8788;49.930;8.660;2022-09-12T09:21:27;5.10;;;4.10;;
17340;SDS011;8788;49.930;8.660;2022-09-12T09:24:00;6.93;;;4.97;;
17340;SDS011;8788;49.930;8.660;2022-09-12T09:26:34;5.90;;;4.43;;
17340;SDS011;8788;49.930;8.660;2022-09-12T09:29:12;3.67;;;3.35;;
17340;SDS011;8788;49.930;8.660;2022-09-12T09:31:43;4.38;;;3.90;;
17340;SDS011;8788;49.930;8.660;2022-09-12T09:34:14;5.72;;;3.90;;
17340;SDS011;8788;49.930;8.660;2022-09-12T09:36:49;4.72;;;4.18;;
17340;SDS011;8788;49.930;8.660;2022-09-12T09:39:32;4.95;;;4.45;;
17340;SDS011;8788;49.930;8.660;2022-09-12T09:42:17;7.00;;;4.30;;
17340;SDS011;8788;49.930;8.660;2022-09-12T09:44:52;4.00;;;3.63;;
17340;SDS011;8788;49.930;8.660;2022-09-12T09:47:23;4.13;;;3.72;;
17340;SDS011;8788;49.930;8.660;2022-09-12T09:49:50;4.55;;;4.05;;
17340;SDS011;8788;49.930;8.660;2022-09-12T09:52:19;3.97;;;3.58;;
17340;SDS011;8788;49.930;8.660;2022-09-12T09:54:52;4.22;;;3.83;;
17340;SDS011;8788;49.930;8.660;2022-09-12T09:57:38;4.32;;;3.92;;
17340;SDS011;8788;49.930;8.660;2022-09-12T10:00:26;4.40;;;3.70;;
17340;SDS011;8788;49.930;8.660;2022-09-12T10:03:01;4.57;;;3.30;;
17340;SDS011;8788;49.930;8.660;2022-09-12T10:05:48;6.25;;;4.15;;
17340;SDS011;8788;49.930;8.660;2022-09-12T10:08:20;4.93;;;4.05;;
17340;SDS011;8788;49.930;8.660;2022-09-12T10:10:54;4.88;;;3.92;;
17340;SDS011;8788;49.930;8.660;2022-09-12T10:13:24;5.05;;;3.63;;
17340;SDS011;8788;49.930;8.660;2022-09-12T10:15:59;5.63;;;3.60;;
17340;SDS011;8788;49.930;8.660;2022-09-12T10:18:36;4.20;;;3.33;;
17340;SDS011;8788;49.930;8.660;2022-09-12T10:21:16;5.03;;;3.92;;
17340;SDS011;8788;49.930;8.660;2022-09-12T10:23:56;4.47;;;3.45;;
17340;SDS011;8788;49.930;8.660;2022-09-12T10:26:37;4.63;;;3.80;;
17340;SDS011;8788;49.930;8.660;2022-09-12T10:29:10;3.58;;;3.28;;
17340;SDS011;8788;49.930;8.660;2022-09-12T10:31:43;3.65;;;3.22;;
17340;SDS011;8788;49.930;8.660;2022-09-12T10:34:23;3.38;;;3.08;;
17340;SDS011;8788;49.930;8.660;2022-09-12T10:36:58;3.80;;;2.83;;
17340;SDS011;8788;49.930;8.660;2022-09-12T10:39:27;3.05;;;2.75;;
17340;SDS011;8788;49.930;8.660;2022-09-12T10:41:55;3.60;;;2.92;;
17340;SDS011;8788;49.930;8.660;2022-09-12T10:44:23;4.57;;;3.60;;
17340;SDS011;8788;49.930;8.660;2022-09-12T10:46:53;3.53;;;2.90;;
17340;SDS011;8788;49.930;8.660;2022-09-12T10:49:22;4.32;;;3.00;;
17340;SDS011;8788;49.930;8.660;2022-09-12T10:51:52;4.15;;;3.30;;
17340;SDS011;8788;49.930;8.660;2022-09-12T10:54:21;3.22;;;2.88;;
17340;SDS011;8788;49.930;8.660;2022-09-12T10:57:00;3.65;;;2.97;;
17340;SDS011;8788;49.930;8.660;2022-09-12T11:02:39;3.33;;;3.00;;
17340;SDS011;8788;49.930;8.660;2022-09-12T11:05:17;4.80;;;3.25;;
17340;SDS011;8788;49.930;8.660;2022-09-12T11:07:53;3.53;;;3.08;;
17340;SDS011;8788;49.930;8.660;2022-09-12T11:10:29;3.60;;;3.20;;
17340;SDS011;8788;49.930;8.660;2022-09-12T11:13:05;3.88;;;3.28;;
17340;SDS011;8788;49.930;8.660;2022-09-12T11:15:47;3.38;;;2.78;;
17340;SDS011;8788;49.930;8.660;2022-09-12T11:18:31;11.15;;;4.63;;
17340;SDS011;8788;49.930;8.660;2022-09-12T11:21:13;3.92;;;3.50;;
17340;SDS011;8788;49.930;8.660;2022-09-12T11:23:55;3.83;;;3.30;;
17340;SDS011;8788;49.930;8.660;2022-09-12T11:26:49;3.30;;;3.00;;
17340;SDS011;8788;49.930;8.660;2022-09-12T11:29:30;4.15;;;3.10;;
17340;SDS011;8788;49.930;8.660;2022-09-12T11:32:11;3.63;;;3.13;;
17340;SDS011;8788;49.930;8.660;2022-09-12T11:34:54;4.07;;;3.05;;
17340;SDS011;8788;49.930;8.660;2022-09-12T11:37:36;7.68;;;3.55;;
17340;SDS011;8788;49.930;8.660;2022-09-12T11:40:18;3.30;;;3.00;;
17340;SDS011;8788;49.930;8.660;2022-09-12T11:42:54;3.88;;;3.47;;
17340;SDS011;8788;49.930;8.660;2022-09-12T11:45:27;3.35;;;3.05;;
17340;SDS011;8788;49.930;8.660;2022-09-12T11:47:58;3.97;;;3.33;;
17340;SDS011;8788;49.930;8.660;2022-09-12T11:50:33;3.42;;;3.05;;
17340;SDS011;8788;49.930;8.660;2022-09-12T11:53:02;4.80;;;3.00;;
17340;SDS011;8788;49.930;8.660;2022-09-12T11:55:38;5.40;;;2.90;;
17340;SDS011;8788;49.930;8.660;2022-09-12T11:58:12;3.10;;;2.80;;
17340;SDS011;8788;49.930;8.660;2022-09-12T12:00:42;3.35;;;3.05;;
17340;SDS011;8788;49.930;8.660;2022-09-12T12:03:13;4.80;;;3.00;;
17340;SDS011;8788;49.930;8.660;2022-09-12T12:05:46;4.93;;;3.35;;
17340;SDS011;8788;49.930;8.660;2022-09-12T12:08:19;3.75;;;3.35;;
17340;SDS011;8788;49.930;8.660;2022-09-12T12:10:48;3.67;;;3.10;;
17340;SDS011;8788;49.930;8.660;2022-09-12T12:13:18;5.80;;;2.97;;
17340;SDS011;8788;49.930;8.660;2022-09-12T12:15:48;3.83;;;3.30;;
17340;SDS011;8788;49.930;8.660;2022-09-12T12:18:19;3.08;;;2.78;;
17340;SDS011;8788;49.930;8.660;2022-09-12T12:20:51;3.92;;;3.53;;
17340;SDS011;8788;49.930;8.660;2022-09-12T12:23:26;3.50;;;3.20;;
17340;SDS011;8788;49.930;8.660;2022-09-12T12:25:57;5.50;;;2.88;;
17340;SDS011;8788;49.930;8.660;2022-09-12T12:31:24;3.13;;;2.83;;
17340;SDS011;8788;49.930;8.660;2022-09-12T12:36:49;3.60;;;3.30;;
17340;SDS011;8788;49.930;8.660;2022-09-12T12:51:27;3.17;;;2.88;;
17340;SDS011;8788;49.930;8.660;2022-09-12T12:57:21;4.28;;;3.10;;
17340;SDS011;8788;49.930;8.660;2022-09-12T12:59:52;4.20;;;3.53;;
17340;SDS011;8788;49.930;8.660;2022-09-12T13:02:23;3.45;;;3.15;;
17340;SDS011;8788;49.930;8.660;2022-09-12T13:04:54;5.07;;;2.65;;
17340;SDS011;8788;49.930;8.660;2022-09-12T13:07:26;3.30;;;3.05;;
17340;SDS011;8788;49.930;8.660;2022-09-12T13:09:58;3.70;;;2.55;;
17340;SDS011;8788;49.930;8.660;2022-09-12T13:12:29;3.22;;;2.92;;
17340;SDS011;8788;49.930;8.660;2022-09-12T13:14:59;3.33;;;3.03;;
17340;SDS011;8788;49.930;8.660;2022-09-12T13:17:29;3.20;;;2.85;;
17340;SDS011;8788;49.930;8.660;2022-09-12T13:20:06;5.90;;;2.80;;
17340;SDS011;8788;49.930;8.660;2022-09-12T13:22:44;3.08;;;2.80;;
17340;SDS011;8788;49.930;8.660;2022-09-12T13:25:20;3.22;;;2.78;;
17340;SDS011;8788;49.930;8.660;2022-09-12T13:27:57;3.17;;;2.88;;
17340;SDS011;8788;49.930;8.660;2022-09-12T13:30:25;2.55;;;2.22;;
17340;SDS011;8788;49.930;8.660;2022-09-12T13:32:55;2.70;;;2.50;;
17340;SDS011;8788;49.930;8.660;2022-09-12T13:35:25;3.35;;;2.15;;
17340;SDS011;8788;49.930;8.660;2022-09-12T13:38:00;3.10;;;2.30;;
17340;SDS011;8788;49.930;8.660;2022-09-12T13:40:35;3.17;;;2.85;;
17340;SDS011;8788;49.930;8.660;2022-09-12T13:43:12;2.85;;;2.65;;
17340;SDS011;8788;49.930;8.660;2022-09-12T13:45:41;3.42;;;2.55;;
17340;SDS011;8788;49.930;8.660;2022-09-12T13:48:12;2.65;;;2.45;;
17340;SDS011;8788;49.930;8.660;2022-09-12T13:50:45;3.55;;;2.67;;
17340;SDS011;8788;49.930;8.660;2022-09-12T13:53:17;4.28;;;2.95;;
17340;SDS011;8788;49.930;8.660;2022-09-12T13:55:48;3.05;;;2.80;;
17340;SDS011;8788;49.930;8.660;2022-09-12T13:58:20;2.75;;;2.45;;
17340;SDS011;8788;49.930;8.660;2022-09-12T14:03:38;2.47;;;2.25;;
17340;SDS011;8788;49.930;8.660;2022-09-12T14:06:24;2.63;;;2.42;;
17340;SDS011;8788;49.930;8.660;2022-09-12T14:08:51;5.00;;;2.67;;
17340;SDS011;8788;49.930;8.660;2022-09-12T14:11:24;2.92;;;2.65;;
17340;SDS011;8788;49.930;8.660;2022-09-12T14:13:54;4.32;;;2.85;;
17340;SDS011;8788;49.930;8.660;2022-09-12T14:16:22;2.38;;;2.15;;
17340;SDS011;8788;49.930;8.660;2022-09-12T14:18:53;4.03;;;2.63;;
17340;SDS011;8788;49.930;8.660;2022-09-12T14:21:25;3.20;;;2.67;;
17340;SDS011;8788;49.930;8.660;2022-09-12T14:23:59;5.10;;;2.40;;
17340;SDS011;8788;49.930;8.660;2022-09-12T14:26:29;2.28;;;2.08;;
17340;SDS011;8788;49.930;8.660;2022-09-12T14:29:00;2.88;;;2.58;;
17340;SDS011;8788;49.930;8.660;2022-09-12T14:31:31;2.50;;;2.30;;
17340;SDS011;8788;49.930;8.660;2022-09-12T14:34:07;3.08;;;2.45;;
17340;SDS011;8788;49.930;8.660;2022-09-12T14:36:39;3.67;;;2.97;;
17340;SDS011;8788;49.930;8.660;2022-09-12T14:39:18;3.30;;;3.00;;
17340;SDS011;8788;49.930;8.660;2022-09-12T14:41:48;3.22;;;2.20;;
17340;SDS011;8788;49.930;8.660;2022-09-12T14:44:26;3.13;;;2.60;;
17340;SDS011;8788;49.930;8.660;2022-09-12T14:46:55;2.25;;;2.08;;
17340;SDS011;8788;49.930;8.660;2022-09-12T14:49:28;2.50;;;2.30;;
17340;SDS011;8788;49.930;8.660;2022-09-12T14:51:58;2.90;;;2.67;;
17340;SDS011;8788;49.930;8.660;2022-09-12T14:54:36;3.25;;;2.55;;
17340;SDS011;8788;49.930;8.660;2022-09-12T15:00:06;3.25;;;2.30;;
17340;SDS011;8788;49.930;8.660;2022-09-12T15:02:45;3.85;;;2.58;;
17340;SDS011;8788;49.930;8.660;2022-09-12T15:05:22;2.75;;;2.55;;
17340;SDS011;8788;49.930;8.660;2022-09-12T15:07:53;2.58;;;2.22;;
17340;SDS011;8788;49.930;8.660;2022-09-12T15:10:25;3.83;;;2.40;;
17340;SDS011;8788;49.930;8.660;2022-09-12T15:15:50;2.75;;;2.55;;
17340;SDS011;8788;49.930;8.660;2022-09-12T15:18:18;4.28;;;2.40;;
17340;SDS011;8788;49.930;8.660;2022-09-12T15:20:47;2.55;;;2.35;;
17340;SDS011;8788;49.930;8.660;2022-09-12T15:23:18;2.40;;;2.20;;
17340;SDS011;8788;49.930;8.660;2022-09-12T15:25:51;2.38;;;2.17;;
17340;SDS011;8788;49.930;8.660;2022-09-12T15:28:19;2.35;;;2.17;;
17340;SDS011;8788;49.930;8.660;2022-09-12T15:30:49;3.70;;;2.35;;
17340;SDS011;8788;49.930;8.660;2022-09-12T15:33:19;2.78;;;2.58;;
17340;SDS011;8788;49.930;8.660;2022-09-12T15:35:48;2.72;;;2.28;;
17340;SDS011;8788;49.930;8.660;2022-09-12T15:38:15;2.53;;;2.28;;
17340;SDS011;8788;49.930;8.660;2022-09-12T15:40:43;2.90;;;2.50;;
17340;SDS011;8788;49.930;8.660;2022-09-12T15:43:11;5.00;;;2.60;;
17340;SDS011;8788;49.930;8.660;2022-09-12T15:45:40;2.80;;;2.60;;
17340;SDS011;8788;49.930;8.660;2022-09-12T15:48:10;2.45;;;2.25;;
17340;SDS011;8788;49.930;8.660;2022-09-12T15:50:38;2.58;;;2.38;;
17340;SDS011;8788;49.930;8.660;2022-09-12T15:53:07;2.58;;;2.38;;
17340;SDS011;8788;49.930;8.660;2022-09-12T15:55:38;2.55;;;2.25;;
17340;SDS011;8788;49.930;8.660;2022-09-12T15:58:05;2.20;;;2.00;;
17340;SDS011;8788;49.930;8.660;2022-09-12T16:00:33;2.85;;;2.47;;
17340;SDS011;8788;49.930;8.660;2022-09-12T16:03:00;4.03;;;2.47;;
17340;SDS011;8788;49.930;8.660;2022-09-12T16:05:29;2.03;;;1.90;;
17340;SDS011;8788;49.930;8.660;2022-09-12T16:07:56;2.83;;;2.63;;
17340;SDS011;8788;49.930;8.660;2022-09-12T16:10:24;2.58;;;2.40;;
17340;SDS011;8788;49.930;8.660;2022-09-12T16:12:53;2.90;;;2.60;;
17340;SDS011;8788;49.930;8.660;2022-09-12T16:15:21;2.58;;;2.30;;
17340;SDS011;8788;49.930;8.660;2022-09-12T16:17:49;2.45;;;2.08;;
17340;SDS011;8788;49.930;8.660;2022-09-12T16:20:17;2.95;;;1.77;;
17340;SDS011;8788;49.930;8.660;2022-09-12T16:22:46;2.55;;;2.22;;
17340;SDS011;8788;49.930;8.660;2022-09-12T16:25:13;3.08;;;2.72;;
17340;SDS011;8788;49.930;8.660;2022-09-12T16:27:41;2.63;;;2.42;;
17340;SDS011;8788;49.930;8.660;2022-09-12T16:30:09;3.60;;;2.30;;
17340;SDS011;8788;49.930;8.660;2022-09-12T16:32:37;2.30;;;2.10;;
17340;SDS011;8788;49.930;8.660;2022-09-12T16:35:04;3.30;;;2.60;;
17340;SDS011;8788;49.930;8.660;2022-09-12T16:37:32;2.50;;;2.30;;
17340;SDS011;8788;49.930;8.660;2022-09-12T16:40:01;2.75;;;2.55;;
17340;SDS011;8788;49.930;8.660;2022-09-12T16:42:29;2.85;;;2.33;;
17340;SDS011;8788;49.930;8.660;2022-09-12T16:44:56;2.85;;;2.13;;
17340;SDS011;8788;49.930;8.660;2022-09-12T16:47:23;2.50;;;2.30;;
17340;SDS011;8788;49.930;8.660;2022-09-12T16:49:51;3.20;;;2.20;;
17340;SDS011;8788;49.930;8.660;2022-09-12T16:52:18;2.45;;;2.10;;
17340;SDS011;8788;49.930;8.660;2022-09-12T16:54:45;2.50;;;2.33;;
17340;SDS011;8788;49.930;8.660;2022-09-12T16:57:13;1.90;;;1.80;;
17340;SDS011;8788;49.930;8.660;2022-09-12T16:59:41;2.00;;;1.80;;
17340;SDS011;8788;49.930;8.660;2022-09-12T17:02:09;4.05;;;2.28;;
17340;SDS011;8788;49.930;8.660;2022-09-12T17:04:38;2.80;;;2.60;;
17340;SDS011;8788;49.930;8.660;2022-09-12T17:07:06;2.15;;;1.95;;
17340;SDS011;8788;49.930;8.660;2022-09-12T17:09:34;3.28;;;2.97;;
17340;SDS011;8788;49.930;8.660;2022-09-12T17:12:01;3.00;;;2.30;;
17340;SDS011;8788;49.930;8.660;2022-09-12T17:14:30;2.78;;;2.42;;
17340;SDS011;8788;49.930;8.660;2022-09-12T17:16:57;3.03;;;2.72;;
17340;SDS011;8788;49.930;8.660;2022-09-12T17:19:25;2.70;;;2.50;;
17340;SDS011;8788;49.930;8.660;2022-09-12T17:21:54;3.08;;;2.88;;
17340;SDS011;8788;49.930;8.660;2022-09-12T17:24:21;3.17;;;2.83;;
17340;SDS011;8788;49.930;8.660;2022-09-12T17:26:49;2.80;;;2.47;;
17340;SDS011;8788;49.930;8.660;2022-09-12T17:29:17;2.83;;;2.63;;
17340;SDS011;8788;49.930;8.660;2022-09-12T17:31:46;2.50;;;2.30;;
17340;SDS011;8788;49.930;8.660;2022-09-12T17:34:13;2.67;;;2.47;;
17340;SDS011;8788;49.930;8.660;2022-09-12T17:36:42;3.15;;;2.50;;
17340;SDS011;8788;49.930;8.660;2022-09-12T17:39:10;2.50;;;2.30;;
17340;SDS011;8788;49.930;8.660;2022-09-12T17:41:38;4.82;;;2.85;;
17340;SDS011;8788;49.930;8.660;2022-09-12T17:44:06;2.55;;;2.35;;
17340;SDS011;8788;49.930;8.660;2022-09-12T17:46:35;2.65;;;2.45;;
17340;SDS011;8788;49.930;8.660;2022-09-12T17:49:05;2.90;;;2.70;;
17340;SDS011;8788;49.930;8.660;2022-09-12T17:51:34;2.78;;;2.58;;
17340;SDS011;8788;49.930;8.660;2022-09-12T17:54:02;3.35;;;3.05;;
17340;SDS011;8788;49.930;8.660;2022-09-12T17:56:32;3.08;;;2.83;;
17340;SDS011;8788;49.930;8.660;2022-09-12T17:59:01;3.40;;;3.10;;
17340;SDS011;8788;49.930;8.660;2022-09-12T18:01:29;3.10;;;2.78;;
17340;SDS011;8788;49.930;8.660;2022-09-12T18:04:15;3.13;;;2.83;;
17340;SDS011;8788;49.930;8.660;2022-09-12T18:06:44;4.28;;;2.78;;
17340;SDS011;8788;49.930;8.660;2022-09-12T18:09:13;6.15;;;4.00;;
17340;SDS011;8788;49.930;8.660;2022-09-12T18:11:42;2.97;;;2.65;;
17340;SDS011;8788;49.930;8.660;2022-09-12T18:14:10;3.33;;;2.80;;
17340;SDS011;8788;49.930;8.660;2022-09-12T18:16:37;3.35;;;2.60;;
17340;SDS011;8788;49.930;8.660;2022-09-12T18:19:04;3.38;;;2.83;;
17340;SDS011;8788;49.930;8.660;2022-09-12T18:21:33;4.85;;;3.50;;
17340;SDS011;8788;49.930;8.660;2022-09-12T18:24:00;3.28;;;2.65;;
17340;SDS011;8788;49.930;8.660;2022-09-12T18:26:29;5.95;;;3.38;;
17340;SDS011;8788;49.930;8.660;2022-09-12T18:28:56;2.88;;;2.63;;
17340;SDS011;8788;49.930;8.660;2022-09-12T18:31:25;3.50;;;3.20;;
17340;SDS011;8788;49.930;8.660;2022-09-12T18:33:53;3.83;;;3.47;;
17340;SDS011;8788;49.930;8.660;2022-09-12T18:36:21;3.78;;;2.97;;
17340;SDS011;8788;49.930;8.660;2022-09-12T18:38:50;3.65;;;3.25;;
17340;SDS011;8788;49.930;8.660;2022-09-12T18:41:18;3.47;;;2.97;;
17340;SDS011;8788;49.930;8.660;2022-09-12T18:43:47;7.15;;;2.92;;
17340;SDS011;8788;49.930;8.660;2022-09-12T18:46:18;3.25;;;2.88;;
17340;SDS011;8788;49.930;8.660;2022-09-12T18:48:45;3.42;;;3.13;;
17340;SDS011;8788;49.930;8.660;2022-09-12T18:51:13;3.95;;;2.60;;
17340;SDS011;8788;49.930;8.660;2022-09-12T18:53:42;3.20;;;2.70;;
17340;SDS011;8788;49.930;8.660;2022-09-12T18:56:15;2.88;;;2.60;;
17340;SDS011;8788;49.930;8.660;2022-09-12T18:58:43;3.80;;;3.13;;
17340;SDS011;8788;49.930;8.660;2022-09-12T19:01:11;4.38;;;3.00;;
17340;SDS011;8788;49.930;8.660;2022-09-12T19:03:39;5.28;;;3.28;;
17340;SDS011;8788;49.930;8.660;2022-09-12T19:06:10;3.72;;;3.42;;
17340;SDS011;8788;49.930;8.660;2022-09-12T19:08:38;4.75;;;3.03;;
17340;SDS011;8788;49.930;8.660;2022-09-12T19:11:06;3.38;;;3.17;;
17340;SDS011;8788;49.930;8.660;2022-09-12T19:13:37;7.65;;;3.55;;
17340;SDS011;8788;49.930;8.660;2022-09-12T19:16:05;4.93;;;3.08;;
17340;SDS011;8788;49.930;8.660;2022-09-12T19:18:34;3.30;;;3.00;;
17340;SDS011;8788;49.930;8.660;2022-09-12T19:21:02;4.30;;;3.15;;
17340;SDS011;8788;49.930;8.660;2022-09-12T19:23:29;7.32;;;4.40;;
17340;SDS011;8788;49.930;8.660;2022-09-12T19:25:57;5.00;;;3.42;;
17340;SDS011;8788;49.930;8.660;2022-09-12T19:28:25;3.78;;;3.28;;
17340;SDS011;8788;49.930;8.660;2022-09-12T19:30:54;3.55;;;3.15;;
17340;SDS011;8788;49.930;8.660;2022-09-12T19:33:22;4.40;;;3.42;;
17340;SDS011;8788;49.930;8.660;2022-09-12T19:35:50;4.80;;;3.45;;
17340;SDS011;8788;49.930;8.660;2022-09-12T19:38:17;5.47;;;3.50;;
17340;SDS011;8788;49.930;8.660;2022-09-12T19:40:53;4.72;;;3.40;;
17340;SDS011;8788;49.930;8.660;2022-09-12T19:43:22;3.58;;;2.92;;
17340;SDS011;8788;49.930;8.660;2022-09-12T19:45:49;3.80;;;3.05;;
17340;SDS011;8788;49.930;8.660;2022-09-12T19:48:18;4.22;;;3.33;;
17340;SDS011;8788;49.930;8.660;2022-09-12T19:50:46;4.22;;;3.00;;
17340;SDS011;8788;49.930;8.660;2022-09-12T19:53:14;3.40;;;3.10;;
17340;SDS011;8788;49.930;8.660;2022-09-12T19:55:41;5.13;;;3.70;;
17340;SDS011;8788;49.930;8.660;2022-09-12T19:58:09;3.92;;;3.63;;